createdAt,value
2022-11-23T00:00:35.309Z,118.90
2022-11-23T00:01:35.282Z,125.00
2022-11-23T00:02:35.346Z,134.70
2022-11-23T00:03:35.252Z,122.80
2022-11-23T00:04:35.255Z,135.90
2022-11-23T00:05:35.235Z,124.50
2022-11-23T00:06:35.199Z,125.00
2022-11-23T00:07:35.372Z,132.60
2022-11-23T00:08:35.167Z,128.00
2022-11-23T00:09:35.174Z,123.20
2022-11-23T00:10:35.152Z,128.00
2022-11-23T00:11:35.152Z,127.50
2022-11-23T00:12:35.129Z,131.40
2022-11-23T00:13:41.967Z,130.30
2022-11-23T00:14:35.122Z,139.90
2022-11-23T00:15:35.128Z,122.00
2022-11-23T00:16:35.081Z,134.20
2022-11-23T00:17:35.053Z,123.20
2022-11-23T00:18:35.046Z,136.10
2022-11-23T00:19:35.047Z,135.80
2022-11-23T00:20:35.030Z,124.30
2022-11-23T00:21:35.022Z,125.60
2022-11-23T00:22:34.989Z,129.40
2022-11-23T00:23:35.000Z,135.50
2022-11-23T00:24:35.004Z,126.80
2022-11-23T00:25:34.984Z,128.40
2022-11-23T00:26:34.945Z,129.20
2022-11-23T00:27:34.946Z,125.60
2022-11-23T00:28:34.913Z,123.80
2022-11-23T00:29:34.924Z,127.90
2022-11-23T00:30:34.915Z,136.30
2022-11-23T00:31:34.899Z,131.50
2022-11-23T00:32:34.871Z,128.50
2022-11-23T00:33:34.858Z,131.70
2022-11-23T00:34:34.847Z,132.80
2022-11-23T00:35:34.821Z,131.70
2022-11-23T00:36:34.835Z,124.10
2022-11-23T00:37:34.805Z,127.70
2022-11-23T00:38:34.780Z,128.10
2022-11-23T00:39:34.767Z,134.40
2022-11-23T00:40:34.766Z,122.50
2022-11-23T00:41:34.789Z,127.30
2022-11-23T00:42:37.986Z,126.70
2022-11-23T00:43:34.761Z,130.00
2022-11-23T00:44:34.710Z,126.10
2022-11-23T00:45:34.722Z,128.20
2022-11-23T00:46:34.702Z,130.40
2022-11-23T00:47:34.698Z,129.00
2022-11-23T00:48:34.665Z,127.60
2022-11-23T00:49:34.668Z,119.60
2022-11-23T00:50:34.644Z,126.60
2022-11-23T00:51:34.618Z,127.50
2022-11-23T00:52:34.607Z,121.10
2022-11-23T00:53:34.591Z,121.30
2022-11-23T00:54:34.588Z,119.00
2022-11-23T00:55:34.565Z,126.40
2022-11-23T00:56:34.554Z,124.70
2022-11-23T00:57:34.558Z,121.50
2022-11-23T00:58:34.531Z,122.40
2022-11-23T00:59:34.676Z,124.80
2022-11-23T01:00:34.525Z,122.70
2022-11-23T01:01:34.543Z,127.70
2022-11-23T01:02:34.489Z,122.50
2022-11-23T01:03:34.460Z,128.50
2022-11-23T01:04:34.462Z,120.40
2022-11-23T01:05:34.444Z,132.10
2022-11-23T01:06:34.449Z,130.90
2022-11-23T01:07:34.553Z,128.30
2022-11-23T01:08:34.408Z,129.10
2022-11-23T01:09:34.394Z,123.80
2022-11-23T01:10:34.391Z,136.40
2022-11-23T01:11:34.381Z,134.90
2022-11-23T01:12:34.381Z,133.90
2022-11-23T01:13:34.334Z,127.20
2022-11-23T01:14:34.316Z,127.80
2022-11-23T01:15:34.314Z,134.60
2022-11-23T01:16:34.350Z,131.40
2022-11-23T01:17:34.288Z,146.20
2022-11-23T01:18:34.275Z,141.20
2022-11-23T01:19:34.475Z,142.50
2022-11-23T01:20:34.238Z,147.80
2022-11-23T01:21:34.246Z,141.70
2022-11-23T01:22:34.234Z,137.00
2022-11-23T01:23:34.215Z,135.60
2022-11-23T01:24:34.204Z,135.30
2022-11-23T01:25:34.196Z,132.30
2022-11-23T01:26:34.167Z,145.00
2022-11-23T01:27:34.176Z,141.30
2022-11-23T01:28:34.152Z,143.20
2022-11-23T01:29:34.595Z,138.90
2022-11-23T01:30:34.111Z,132.80
2022-11-23T01:31:34.133Z,138.40
2022-11-23T01:32:34.083Z,139.10
2022-11-23T01:33:34.079Z,133.70
2022-11-23T01:34:34.058Z,134.90
2022-11-23T01:35:34.076Z,135.90
2022-11-23T01:36:34.052Z,132.40
2022-11-23T01:37:34.049Z,134.50
2022-11-23T01:38:34.012Z,139.90
2022-11-23T01:39:34.447Z,128.20
2022-11-23T01:40:33.994Z,129.90
2022-11-23T01:41:33.998Z,126.70
2022-11-23T01:42:33.969Z,121.00
2022-11-23T01:43:33.979Z,119.10
2022-11-23T01:44:33.950Z,121.90
2022-11-23T01:46:45.100Z,106.60
2022-11-23T01:47:46.094Z,117.40
2022-11-23T01:48:46.098Z,114.70
2022-11-23T01:49:46.073Z,117.70
2022-11-23T01:50:46.070Z,115.00
2022-11-23T01:51:46.052Z,112.40
2022-11-23T01:52:46.029Z,108.70
2022-11-23T01:53:46.040Z,113.70
2022-11-23T01:54:46.020Z,106.00
2022-11-23T01:55:45.997Z,111.60
2022-11-23T01:56:45.989Z,108.90
2022-11-23T01:57:45.958Z,107.00
2022-11-23T01:58:45.967Z,108.80
2022-11-23T01:59:45.954Z,106.10
2022-11-23T02:00:46.018Z,96.70
2022-11-23T02:01:45.913Z,101.50
2022-11-23T02:02:45.916Z,105.40
2022-11-23T02:03:45.893Z,102.10
2022-11-23T02:04:45.894Z,104.20
2022-11-23T02:05:45.869Z,105.80
2022-11-23T02:06:45.871Z,102.30
2022-11-23T02:07:45.887Z,105.50
2022-11-23T02:08:45.891Z,100.30
2022-11-23T02:09:45.831Z,102.00
2022-11-23T02:10:45.852Z,96.00
2022-11-23T02:11:45.813Z,109.80
2022-11-23T02:12:45.767Z,104.70
2022-11-23T02:13:45.765Z,107.00
2022-11-23T02:14:45.799Z,107.50
2022-11-23T02:15:45.779Z,97.10
2022-11-23T02:16:45.770Z,102.00
2022-11-23T02:17:45.774Z,100.70
2022-11-23T02:18:45.740Z,102.70
2022-11-23T02:19:45.755Z,98.70
2022-11-23T02:20:45.688Z,97.10
2022-11-23T02:21:45.725Z,101.00
2022-11-23T02:22:45.662Z,98.00
2022-11-23T02:23:45.690Z,98.40
2022-11-23T02:24:45.650Z,98.60
2022-11-23T02:25:45.632Z,96.80
2022-11-23T02:26:45.610Z,99.70
2022-11-23T02:27:47.234Z,98.80
2022-11-23T02:28:45.577Z,98.50
2022-11-23T02:29:45.597Z,93.10
2022-11-23T02:30:45.541Z,94.10
2022-11-23T02:31:45.573Z,97.50
2022-11-23T02:32:45.542Z,93.20
2022-11-23T02:33:45.518Z,97.60
2022-11-23T02:34:45.489Z,95.20
2022-11-23T02:35:45.497Z,91.60
2022-11-23T02:36:45.461Z,96.30
2022-11-23T02:37:45.469Z,104.00
2022-11-23T02:38:45.466Z,96.40
2022-11-23T02:39:45.458Z,92.10
2022-11-23T02:40:45.430Z,97.30
2022-11-23T02:41:45.404Z,91.90
2022-11-23T02:42:45.400Z,100.60
2022-11-23T02:43:45.379Z,95.80
2022-11-23T02:44:45.414Z,89.60
2022-11-23T02:45:45.369Z,91.40
2022-11-23T02:46:45.377Z,95.10
2022-11-23T02:47:45.389Z,97.40
2022-11-23T02:48:45.313Z,97.60
2022-11-23T02:49:45.320Z,93.00
2022-11-23T02:50:45.318Z,97.90
2022-11-23T02:51:45.299Z,95.70
2022-11-23T02:52:45.267Z,94.40
2022-11-23T02:53:45.268Z,95.30
2022-11-23T02:54:45.233Z,97.10
2022-11-23T02:55:45.241Z,98.60
2022-11-23T02:56:45.211Z,101.70
2022-11-23T02:57:45.217Z,90.50
2022-11-23T02:58:45.190Z,96.90
2022-11-23T02:59:45.176Z,104.10
2022-11-23T03:00:45.275Z,105.50
2022-11-23T03:01:45.160Z,93.70
2022-11-23T03:02:45.147Z,102.60
2022-11-23T03:03:45.151Z,90.90
2022-11-23T03:04:45.152Z,100.80
2022-11-23T03:05:45.123Z,101.10
2022-11-23T03:06:45.125Z,95.30
2022-11-23T03:07:45.201Z,104.30
2022-11-23T03:08:45.059Z,100.00
2022-11-23T03:09:45.089Z,102.30
2022-11-23T03:10:45.055Z,103.70
2022-11-23T03:11:45.044Z,110.80
2022-11-23T03:12:45.023Z,106.10
2022-11-23T03:13:45.017Z,110.80
2022-11-23T03:14:44.986Z,106.70
2022-11-23T03:15:44.989Z,106.40
2022-11-23T03:16:44.970Z,114.80
2022-11-23T03:17:44.963Z,110.60
2022-11-23T03:18:44.950Z,113.50
2022-11-23T03:19:44.961Z,113.80
2022-11-23T03:20:44.907Z,108.80
2022-11-23T03:21:44.926Z,101.10
2022-11-23T03:22:44.909Z,112.20
2022-11-23T03:23:44.908Z,110.90
2022-11-23T03:24:44.869Z,108.50
2022-11-23T03:25:44.888Z,110.20
2022-11-23T03:26:44.833Z,110.20
2022-11-23T03:27:44.829Z,109.70
2022-11-23T03:28:44.816Z,110.20
2022-11-23T03:29:44.839Z,109.40
2022-11-23T03:30:44.799Z,112.10
2022-11-23T03:31:44.800Z,110.60
2022-11-23T03:32:44.754Z,116.30
2022-11-23T03:33:44.790Z,114.00
2022-11-23T03:34:44.753Z,118.20
2022-11-23T03:35:44.723Z,119.30
2022-11-23T03:36:44.722Z,116.40
2022-11-23T03:37:44.718Z,111.70
2022-11-23T03:38:44.695Z,120.50
2022-11-23T03:39:47.505Z,120.30
2022-11-23T03:40:44.668Z,111.40
2022-11-23T03:41:44.647Z,118.00
2022-11-23T03:42:44.627Z,121.40
2022-11-23T03:43:44.639Z,119.50
2022-11-23T03:44:44.634Z,120.00
2022-11-23T03:45:44.621Z,120.20
2022-11-23T03:46:44.572Z,122.30
2022-11-23T03:47:44.564Z,122.90
2022-11-23T03:48:44.567Z,129.00
2022-11-23T03:49:44.548Z,124.40
2022-11-23T03:50:44.562Z,119.50
2022-11-23T03:51:44.514Z,128.10
2022-11-23T03:52:44.495Z,127.30
2022-11-23T03:53:44.496Z,124.80
2022-11-23T03:54:44.471Z,120.10
2022-11-23T03:55:44.472Z,125.20
2022-11-23T03:56:44.448Z,131.20
2022-11-23T03:57:44.437Z,124.00
2022-11-23T03:58:44.443Z,122.50
2022-11-23T03:59:44.422Z,126.50
2022-11-23T04:00:44.444Z,120.20
2022-11-23T04:01:44.410Z,119.20
2022-11-23T04:02:44.380Z,124.00
2022-11-23T04:03:44.362Z,119.50
2022-11-23T04:04:44.364Z,121.60
2022-11-23T04:05:44.366Z,124.90
2022-11-23T04:06:44.336Z,126.40
2022-11-23T04:07:44.364Z,123.60
2022-11-23T04:08:44.293Z,119.70
2022-11-23T04:09:44.297Z,116.70
2022-11-23T04:10:44.292Z,119.70
2022-11-23T04:11:44.259Z,120.20
2022-11-23T04:12:44.259Z,118.10
2022-11-23T04:13:44.240Z,123.40
2022-11-23T04:14:44.235Z,115.30
2022-11-23T04:15:44.233Z,123.70
2022-11-23T04:16:44.206Z,120.70
2022-11-23T04:17:44.197Z,126.60
2022-11-23T04:18:44.174Z,123.10
2022-11-23T04:19:44.163Z,122.90
2022-11-23T04:20:44.156Z,125.60
2022-11-23T04:21:44.130Z,114.50
2022-11-23T04:22:44.128Z,125.90
2022-11-23T04:23:44.134Z,117.00
2022-11-23T04:24:44.091Z,126.50
2022-11-23T04:25:44.100Z,119.70
2022-11-23T04:26:44.081Z,131.30
2022-11-23T04:27:44.067Z,122.10
2022-11-23T04:28:44.085Z,136.90
2022-11-23T04:29:44.055Z,119.40
2022-11-23T04:30:44.017Z,116.10
2022-11-23T04:31:44.015Z,132.20
2022-11-23T04:32:44.043Z,123.00
2022-11-23T04:33:43.972Z,128.10
2022-11-23T04:34:43.990Z,127.60
2022-11-23T04:35:43.978Z,125.40
2022-11-23T04:36:43.945Z,127.50
2022-11-23T04:37:43.919Z,136.50
2022-11-23T04:38:43.919Z,123.60
2022-11-23T04:39:43.918Z,123.90
2022-11-23T04:40:43.894Z,133.80
2022-11-23T04:41:43.887Z,125.30
2022-11-23T04:42:43.879Z,120.50
2022-11-23T04:43:43.874Z,122.20
2022-11-23T04:44:43.828Z,131.90
2022-11-23T04:45:43.833Z,123.80
2022-11-23T04:46:43.802Z,119.90
2022-11-23T04:47:43.835Z,127.90
2022-11-23T04:48:43.777Z,123.40
2022-11-23T04:49:43.825Z,128.40
2022-11-23T04:50:46.600Z,129.40
2022-11-23T04:51:43.758Z,125.70
2022-11-23T04:52:43.738Z,127.60
2022-11-23T04:53:43.757Z,125.30
2022-11-23T04:54:43.698Z,120.20
2022-11-23T04:55:43.707Z,125.70
2022-11-23T04:56:43.682Z,117.60
2022-11-23T04:57:43.663Z,128.60
2022-11-23T04:58:43.660Z,132.60
2022-11-23T04:59:43.658Z,144.70
2022-11-23T05:00:43.784Z,129.50
2022-11-23T05:01:43.617Z,121.40
2022-11-23T05:02:43.604Z,123.60
2022-11-23T05:03:43.621Z,118.70
2022-11-23T05:04:43.594Z,119.40
2022-11-23T05:05:43.579Z,114.60
2022-11-23T05:06:43.561Z,115.80
2022-11-23T05:07:43.610Z,120.60
2022-11-23T05:08:43.528Z,112.20
2022-11-23T05:09:43.531Z,122.70
2022-11-23T05:10:43.530Z,110.00
2022-11-23T05:11:43.492Z,109.50
2022-11-23T05:12:43.493Z,111.60
2022-11-23T05:13:43.457Z,109.50
2022-11-23T05:14:43.476Z,110.70
2022-11-23T05:15:43.435Z,110.20
2022-11-23T05:16:43.423Z,122.00
2022-11-23T05:17:43.416Z,106.00
2022-11-23T05:18:43.398Z,106.00
2022-11-23T05:19:43.405Z,104.20
2022-11-23T05:20:43.373Z,106.90
2022-11-23T05:21:43.374Z,110.10
2022-11-23T05:22:43.354Z,107.70
2022-11-23T05:23:43.355Z,103.10
2022-11-23T05:24:43.312Z,112.70
2022-11-23T05:25:43.318Z,102.30
2022-11-23T05:26:43.307Z,101.80
2022-11-23T05:27:43.314Z,106.80
2022-11-23T05:28:43.281Z,101.10
2022-11-23T05:29:43.282Z,100.90
2022-11-23T05:30:43.238Z,104.60
2022-11-23T05:31:43.251Z,101.70
2022-11-23T05:32:43.227Z,107.10
2022-11-23T05:33:43.238Z,101.60
2022-11-23T05:34:43.197Z,98.70
2022-11-23T05:35:43.183Z,102.00
2022-11-23T05:36:43.177Z,90.80
2022-11-23T05:37:43.172Z,95.80
2022-11-23T05:38:43.134Z,96.80
2022-11-23T05:39:43.168Z,91.20
2022-11-23T05:40:43.125Z,93.70
2022-11-23T05:41:43.104Z,102.50
2022-11-23T05:42:43.114Z,93.70
2022-11-23T05:43:43.103Z,87.60
2022-11-23T05:44:43.058Z,88.40
2022-11-23T05:45:43.080Z,90.00
2022-11-23T05:46:43.047Z,94.70
2022-11-23T05:47:43.054Z,91.10
2022-11-23T05:48:43.008Z,84.50
2022-11-23T05:49:43.025Z,83.90
2022-11-23T05:50:43.000Z,88.70
2022-11-23T05:51:42.991Z,88.70
2022-11-23T05:52:42.957Z,85.10
2022-11-23T05:53:42.978Z,88.40
2022-11-23T05:54:42.983Z,87.40
2022-11-23T05:55:42.939Z,84.40
2022-11-23T05:56:42.911Z,84.70
2022-11-23T05:57:42.895Z,82.50
2022-11-23T05:58:42.877Z,79.90
2022-11-23T05:59:42.890Z,82.40
2022-11-23T06:00:42.870Z,83.30
2022-11-23T06:01:42.853Z,86.70
2022-11-23T06:02:42.846Z,94.20
2022-11-23T06:03:42.854Z,81.80
2022-11-23T06:04:42.834Z,83.70
2022-11-23T06:05:42.812Z,81.60
2022-11-23T06:06:42.784Z,87.60
2022-11-23T06:07:42.845Z,91.20
2022-11-23T06:08:46.636Z,86.10
2022-11-23T06:09:42.750Z,96.60
2022-11-23T06:10:42.737Z,90.80
2022-11-23T06:11:42.742Z,89.60
2022-11-23T06:12:42.704Z,89.50
2022-11-23T06:13:42.706Z,91.40
2022-11-23T06:14:42.672Z,87.10
2022-11-23T06:15:42.681Z,95.60
2022-11-23T06:16:42.660Z,97.40
2022-11-23T06:17:42.661Z,89.40
2022-11-23T06:18:42.647Z,92.20
2022-11-23T06:19:42.647Z,91.40
2022-11-23T06:20:42.600Z,89.80
2022-11-23T06:21:47.443Z,88.50
2022-11-23T06:22:42.577Z,82.30
2022-11-23T06:23:42.583Z,86.40
2022-11-23T06:24:42.545Z,94.90
2022-11-23T06:25:42.552Z,88.30
2022-11-23T06:26:42.517Z,87.30
2022-11-23T06:27:42.534Z,95.60
2022-11-23T06:28:42.498Z,92.90
2022-11-23T06:29:42.494Z,89.90
2022-11-23T06:30:42.480Z,95.00
2022-11-23T06:31:42.472Z,92.70
2022-11-23T06:32:42.444Z,93.90
2022-11-23T06:33:42.446Z,92.60
2022-11-23T06:34:42.431Z,91.20
2022-11-23T06:35:42.426Z,95.10
2022-11-23T06:36:42.391Z,91.80
2022-11-23T06:37:42.380Z,104.30
2022-11-23T06:38:42.382Z,87.10
2022-11-23T06:39:42.374Z,103.00
2022-11-23T06:40:42.348Z,93.90
2022-11-23T06:41:42.330Z,92.90
2022-11-23T06:42:42.361Z,102.40
2022-11-23T06:43:42.333Z,102.20
2022-11-23T06:44:42.299Z,115.20
2022-11-23T06:45:42.300Z,110.10
2022-11-23T06:46:42.296Z,107.50
2022-11-23T06:47:42.271Z,107.70
2022-11-23T06:48:42.241Z,109.50
2022-11-23T06:49:42.234Z,114.00
2022-11-23T06:50:42.229Z,115.40
2022-11-23T06:51:42.240Z,112.50
2022-11-23T06:52:42.200Z,107.40
2022-11-23T06:53:42.171Z,109.70
2022-11-23T06:54:42.182Z,115.20
2022-11-23T06:55:42.149Z,106.00
2022-11-23T06:56:42.177Z,110.80
2022-11-23T06:57:42.157Z,114.20
2022-11-23T06:58:42.152Z,117.00
2022-11-23T06:59:44.936Z,118.30
2022-11-23T07:00:42.161Z,124.00
2022-11-23T07:01:42.167Z,118.10
2022-11-23T07:02:42.120Z,126.50
2022-11-23T07:03:42.118Z,120.80
2022-11-23T07:04:42.048Z,118.30
2022-11-23T07:05:42.035Z,113.00
2022-11-23T07:06:42.076Z,123.30
2022-11-23T07:07:42.097Z,128.10
2022-11-23T07:08:42.014Z,111.90
2022-11-23T07:09:41.990Z,128.50
2022-11-23T07:10:41.985Z,118.20
2022-11-23T07:11:41.987Z,127.20
2022-11-23T07:12:42.007Z,116.30
2022-11-23T07:13:42.019Z,119.30
2022-11-23T07:14:41.918Z,112.10
2022-11-23T07:15:41.914Z,114.00
2022-11-23T07:16:41.901Z,119.50
2022-11-23T07:17:41.867Z,112.50
2022-11-23T07:18:41.880Z,115.40
2022-11-23T07:19:41.836Z,122.70
2022-11-23T07:20:41.826Z,120.50
2022-11-23T07:21:41.817Z,114.80
2022-11-23T07:22:41.823Z,121.20
2022-11-23T07:23:41.804Z,130.00
2022-11-23T07:24:46.508Z,119.50
2022-11-23T07:25:41.781Z,115.10
2022-11-23T07:26:41.771Z,115.30
2022-11-23T07:27:41.749Z,110.90
2022-11-23T07:28:41.759Z,104.60
2022-11-23T07:29:41.708Z,114.60
2022-11-23T07:30:41.716Z,110.60
2022-11-23T07:31:41.707Z,113.40
2022-11-23T07:32:41.697Z,115.00
2022-11-23T07:33:41.668Z,107.40
2022-11-23T07:34:41.679Z,107.70
2022-11-23T07:35:41.648Z,103.50
2022-11-23T07:36:41.625Z,106.50
2022-11-23T07:37:41.607Z,103.20
2022-11-23T07:38:41.600Z,106.90
2022-11-23T07:39:57.009Z,99.10
2022-11-23T07:40:41.583Z,102.70
2022-11-23T07:41:41.586Z,101.70
2022-11-23T07:42:45.025Z,96.60
2022-11-23T07:43:41.540Z,112.30
2022-11-23T07:44:41.558Z,94.50
2022-11-23T07:45:47.674Z,99.20
2022-11-23T07:46:41.563Z,99.30
2022-11-23T07:47:41.511Z,104.00
2022-11-23T07:48:41.519Z,93.20
2022-11-23T07:49:41.523Z,102.40
2022-11-23T07:50:41.477Z,92.40
2022-11-23T07:51:41.530Z,96.10
2022-11-23T07:52:41.426Z,95.40
2022-11-23T07:53:41.423Z,91.20
2022-11-23T07:54:41.487Z,96.20
2022-11-23T07:55:41.402Z,90.50
2022-11-23T07:56:41.392Z,86.50
2022-11-23T07:57:41.392Z,83.70
2022-11-23T07:58:41.507Z,77.90
2022-11-23T07:59:41.457Z,69.30
2022-11-23T08:00:41.436Z,67.10
2022-11-23T08:01:41.361Z,66.00
2022-11-23T08:02:53.028Z,63.20
2022-11-23T08:03:41.395Z,59.50
2022-11-23T08:04:41.334Z,63.80
2022-11-23T08:05:41.266Z,58.90
2022-11-23T08:06:41.266Z,57.80
2022-11-23T08:07:41.347Z,59.60
2022-11-23T08:08:41.253Z,51.50
2022-11-23T08:09:41.209Z,49.70
2022-11-23T08:10:46.101Z,52.20
2022-11-23T08:11:41.265Z,54.70
2022-11-23T08:12:41.194Z,54.40
2022-11-23T08:13:41.223Z,48.00
2022-11-23T08:14:41.196Z,43.90
2022-11-23T08:15:41.222Z,51.70
2022-11-23T08:16:41.202Z,46.20
2022-11-23T08:17:41.136Z,45.60
2022-11-23T08:18:41.163Z,46.50
2022-11-23T08:19:41.140Z,48.80
2022-11-23T08:20:41.146Z,47.60
2022-11-23T08:21:41.106Z,44.80
2022-11-23T08:22:41.107Z,43.60
2022-11-23T08:23:41.144Z,51.00
2022-11-23T08:24:41.041Z,50.10
2022-11-23T08:25:41.027Z,48.60
2022-11-23T08:26:41.048Z,51.70
2022-11-23T08:27:41.061Z,46.00
2022-11-23T08:28:40.969Z,48.60
2022-11-23T08:29:41.006Z,45.30
2022-11-23T08:30:41.013Z,49.40
2022-11-23T08:31:41.026Z,49.10
2022-11-23T08:32:40.963Z,51.10
2022-11-23T08:33:41.214Z,45.10
2022-11-23T08:34:41.000Z,47.90
2022-11-23T08:35:40.888Z,49.50
2022-11-23T08:36:41.003Z,46.50
2022-11-23T08:37:40.872Z,46.70
2022-11-23T08:38:40.917Z,47.10
2022-11-23T08:39:40.855Z,47.60
2022-11-23T08:40:40.895Z,48.10
2022-11-23T08:41:40.923Z,49.70
2022-11-23T08:42:41.420Z,48.70
2022-11-23T08:43:40.981Z,42.00
2022-11-23T08:44:40.822Z,43.70
2022-11-23T08:45:41.037Z,48.00
2022-11-23T08:46:40.827Z,40.50
2022-11-23T08:47:40.733Z,43.60
2022-11-23T08:48:40.803Z,42.60
2022-11-23T08:49:40.818Z,41.90
2022-11-23T08:50:40.734Z,40.10
2022-11-23T08:51:43.394Z,47.10
2022-11-23T08:52:40.854Z,43.60
2022-11-23T08:53:40.716Z,41.70
2022-11-23T08:54:40.647Z,41.70
2022-11-23T08:55:40.661Z,40.10
2022-11-23T08:56:40.672Z,40.10
2022-11-23T08:57:40.798Z,42.60
2022-11-23T08:58:40.623Z,45.50
2022-11-23T08:59:40.560Z,40.00
2022-11-23T09:00:40.564Z,40.50
2022-11-23T09:01:40.587Z,37.40
2022-11-23T09:02:40.542Z,40.10
2022-11-23T09:03:40.553Z,39.00
2022-11-23T09:04:40.538Z,37.50
2022-11-23T09:05:40.496Z,38.30
2022-11-23T09:06:40.481Z,36.10
2022-11-23T09:07:40.540Z,37.10
2022-11-23T09:08:40.476Z,36.40
2022-11-23T09:09:40.461Z,38.20
2022-11-23T09:10:40.467Z,35.50
2022-11-23T09:11:40.481Z,34.40
2022-11-23T09:12:40.396Z,36.00
2022-11-23T09:13:40.418Z,37.10
2022-11-23T09:14:40.375Z,32.30
2022-11-23T09:15:40.371Z,35.70
2022-11-23T09:16:40.327Z,31.30
2022-11-23T09:17:40.313Z,33.90
2022-11-23T09:18:40.342Z,35.50
2022-11-23T09:19:40.352Z,31.20
2022-11-23T09:20:40.279Z,32.50
2022-11-23T09:21:40.296Z,34.10
2022-11-23T09:22:40.312Z,30.70
2022-11-23T09:23:40.291Z,29.10
2022-11-23T09:24:40.267Z,29.10
2022-11-23T09:25:40.240Z,34.60
2022-11-23T09:26:40.217Z,30.70
2022-11-23T09:27:40.222Z,31.20
2022-11-23T09:28:44.556Z,25.90
2022-11-23T09:29:40.236Z,31.20
2022-11-23T09:30:40.182Z,30.70
2022-11-23T09:31:40.182Z,31.60
2022-11-23T09:32:40.170Z,28.90
2022-11-23T09:33:40.156Z,30.50
2022-11-23T09:34:40.150Z,30.90
2022-11-23T09:35:43.793Z,33.30
2022-11-23T09:36:40.281Z,34.10
2022-11-23T09:37:40.062Z,33.30
2022-11-23T09:38:56.171Z,30.60
2022-11-23T09:39:40.074Z,29.50
2022-11-23T09:40:40.046Z,30.50
2022-11-23T09:41:40.013Z,29.80
2022-11-23T09:42:39.988Z,28.80
2022-11-23T09:43:39.972Z,29.00
2022-11-23T09:44:39.972Z,31.50
2022-11-23T09:45:39.964Z,28.50
2022-11-23T09:46:39.959Z,28.10
2022-11-23T09:47:39.920Z,27.40
2022-11-23T09:48:39.910Z,27.70
2022-11-23T09:49:39.922Z,28.40
2022-11-23T09:50:39.914Z,26.10
2022-11-23T09:51:39.910Z,27.90
2022-11-23T09:52:39.894Z,27.10
2022-11-23T09:53:39.852Z,23.80
2022-11-23T09:54:39.833Z,25.90
2022-11-23T09:55:39.862Z,31.40
2022-11-23T09:56:39.830Z,28.40
2022-11-23T09:57:39.806Z,28.20
2022-11-23T09:58:39.794Z,25.10
2022-11-23T09:59:39.810Z,25.40
2022-11-23T10:00:39.795Z,24.50
2022-11-23T10:01:39.796Z,23.50
2022-11-23T10:02:39.736Z,23.10
2022-11-23T10:03:43.921Z,23.50
2022-11-23T10:04:39.750Z,27.90
2022-11-23T10:05:39.727Z,24.30
2022-11-23T10:06:39.674Z,23.20
2022-11-23T10:07:39.918Z,24.00
2022-11-23T10:08:39.715Z,23.10
2022-11-23T10:09:39.774Z,31.20
2022-11-23T10:10:39.719Z,23.50
2022-11-23T10:11:39.729Z,22.00
2022-11-23T10:12:40.225Z,22.30
2022-11-23T10:13:39.612Z,19.80
2022-11-23T10:14:39.684Z,20.70
2022-11-23T10:15:39.630Z,20.50
2022-11-23T10:16:39.624Z,20.60
2022-11-23T10:17:39.623Z,22.60
2022-11-23T10:18:39.605Z,22.30
2022-11-23T10:19:39.600Z,21.50
2022-11-23T10:20:39.658Z,19.90
2022-11-23T10:21:39.542Z,21.90
2022-11-23T10:22:39.569Z,22.90
2022-11-23T10:23:39.692Z,21.30
2022-11-23T10:24:39.544Z,22.30
2022-11-23T10:25:39.784Z,21.10
2022-11-23T10:26:39.457Z,23.50
2022-11-23T10:27:39.613Z,20.20
2022-11-23T10:28:39.404Z,19.80
2022-11-23T10:29:39.471Z,23.20
2022-11-23T10:30:39.518Z,23.40
2022-11-23T10:31:39.345Z,24.90
2022-11-23T10:32:39.325Z,21.20
2022-11-23T10:33:39.325Z,25.10
2022-11-23T10:34:39.312Z,21.70
2022-11-23T10:35:39.289Z,20.20
2022-11-23T10:36:39.297Z,21.80
2022-11-23T10:37:39.303Z,22.40
2022-11-23T10:38:39.241Z,27.00
2022-11-23T10:39:39.234Z,22.60
2022-11-23T10:40:39.242Z,21.50
2022-11-23T10:41:39.216Z,21.40
2022-11-23T10:42:39.211Z,21.80
2022-11-23T10:43:39.172Z,24.00
2022-11-23T10:44:39.169Z,22.50
2022-11-23T10:45:39.170Z,21.60
2022-11-23T10:46:39.145Z,23.50
2022-11-23T10:47:39.138Z,25.10
2022-11-23T10:48:39.127Z,25.90
2022-11-23T10:49:39.107Z,21.10
2022-11-23T10:50:39.089Z,23.90
2022-11-23T10:51:39.093Z,27.10
2022-11-23T10:52:39.100Z,24.20
2022-11-23T10:53:39.082Z,23.00
2022-11-23T10:54:39.071Z,24.10
2022-11-23T10:55:39.023Z,22.30
2022-11-23T10:56:39.029Z,25.90
2022-11-23T10:57:39.018Z,22.00
2022-11-23T10:58:38.988Z,24.50
2022-11-23T10:59:39.001Z,21.80
2022-11-23T11:00:38.980Z,20.50
2022-11-23T11:01:38.981Z,24.40
2022-11-23T11:02:38.947Z,24.00
2022-11-23T11:03:38.945Z,22.20
2022-11-23T11:04:38.924Z,19.40
2022-11-23T11:06:09.407Z,19.90
2022-11-23T11:06:38.875Z,22.90
2022-11-23T11:07:38.923Z,21.30
2022-11-23T11:08:38.883Z,22.10
2022-11-23T11:09:38.848Z,21.20
2022-11-23T11:10:38.878Z,23.50
2022-11-23T11:11:38.849Z,19.60
2022-11-23T11:12:38.806Z,22.40
2022-11-23T11:13:38.834Z,21.10
2022-11-23T11:14:43.269Z,20.90
2022-11-23T11:15:47.251Z,23.30
2022-11-23T11:16:38.942Z,22.90
2022-11-23T11:17:38.726Z,22.60
2022-11-23T11:18:38.722Z,25.60
2022-11-23T11:19:38.710Z,22.80
2022-11-23T11:20:38.707Z,21.60
2022-11-23T11:21:38.698Z,22.10
2022-11-23T11:22:41.073Z,20.70
2022-11-23T11:23:38.679Z,22.90
2022-11-23T11:24:38.670Z,24.00
2022-11-23T11:25:38.640Z,20.90
2022-11-23T11:26:38.600Z,21.10
2022-11-23T11:27:38.600Z,22.00
2022-11-23T11:28:38.595Z,18.50
2022-11-23T11:29:39.519Z,19.50
2022-11-23T11:30:38.570Z,21.00
2022-11-23T11:31:38.571Z,20.60
2022-11-23T11:32:38.531Z,23.90
2022-11-23T11:33:38.536Z,20.60
2022-11-23T11:34:38.501Z,21.60
2022-11-23T11:35:38.511Z,21.70
2022-11-23T11:36:38.495Z,21.80
2022-11-23T11:37:38.460Z,23.90
2022-11-23T11:38:38.469Z,22.50
2022-11-23T11:39:38.449Z,20.10
2022-11-23T11:40:38.425Z,24.60
2022-11-23T11:41:38.419Z,22.20
2022-11-23T11:42:38.416Z,20.70
2022-11-23T11:43:40.276Z,19.20
2022-11-23T11:44:38.368Z,20.50
2022-11-23T11:45:38.366Z,24.80
2022-11-23T11:46:38.404Z,29.10
2022-11-23T11:47:38.348Z,22.20
2022-11-23T11:48:38.340Z,22.00
2022-11-23T11:49:38.323Z,35.90
2022-11-23T11:50:38.339Z,33.60
2022-11-23T11:51:38.303Z,19.70
2022-11-23T11:52:38.293Z,22.30
2022-11-23T11:53:39.721Z,20.30
2022-11-23T11:54:38.235Z,18.30
2022-11-23T11:55:38.251Z,21.60
2022-11-23T11:56:38.246Z,22.00
2022-11-23T11:57:38.252Z,21.10
2022-11-23T11:58:42.864Z,20.30
2022-11-23T11:59:38.197Z,18.90
2022-11-23T12:00:42.192Z,20.30
2022-11-23T12:01:38.165Z,17.40
2022-11-23T12:02:38.217Z,18.60
2022-11-23T12:03:38.135Z,22.50
2022-11-23T12:04:38.109Z,19.60
2022-11-23T12:05:38.096Z,16.80
2022-11-23T12:06:38.088Z,17.20
2022-11-23T12:07:38.135Z,19.10
2022-11-23T12:08:38.053Z,17.30
2022-11-23T12:09:38.046Z,17.70
2022-11-23T12:10:38.098Z,15.40
2022-11-23T12:11:38.047Z,16.00
2022-11-23T12:12:37.998Z,19.90
2022-11-23T12:13:38.030Z,17.60
2022-11-23T12:14:37.968Z,16.10
2022-11-23T12:15:53.384Z,17.20
2022-11-23T12:16:37.954Z,18.10
2022-11-23T12:17:37.953Z,19.00
2022-11-23T12:18:37.933Z,16.40
2022-11-23T12:19:37.939Z,18.60
2022-11-23T12:20:37.902Z,18.10
2022-11-23T12:21:37.952Z,17.20
2022-11-23T12:22:37.889Z,20.40
2022-11-23T12:23:37.855Z,18.40
2022-11-23T12:24:37.857Z,20.80
2022-11-23T12:25:37.826Z,40.50
2022-11-23T12:26:37.807Z,25.00
2022-11-23T12:27:39.299Z,18.30
2022-11-23T12:28:37.806Z,21.70
2022-11-23T12:29:37.791Z,18.50
2022-11-23T12:30:37.782Z,19.90
2022-11-23T12:31:37.760Z,16.20
2022-11-23T12:32:37.750Z,18.20
2022-11-23T12:33:37.733Z,19.20
2022-11-23T12:34:37.747Z,20.90
2022-11-23T12:35:37.729Z,19.10
2022-11-23T12:36:37.696Z,18.00
2022-11-23T12:37:37.746Z,18.00
2022-11-23T12:38:37.662Z,19.70
2022-11-23T12:39:37.675Z,19.70
2022-11-23T12:40:37.651Z,18.60
2022-11-23T12:41:37.617Z,18.60
2022-11-23T12:42:37.595Z,19.50